Time;durP1;ratioP1;P1;durP2;ratioP2;P2;SDS_P1;SDS_P2;PMS_P1;PMS_P2;Temp;Humidity;BMP_temperature;BMP_pressure;BME280_temperature;BME280_humidity;BME280_pressure;Samples;Min_cycle;Max_cycle;Signal;HPM_P1;HPM_P2
2021/10/19 00:01:51;;;;;;;13.03;7.63;;;;;;;-143.37;100.00;65745.06;5092446;28;20614;-73
2021/10/19 00:04:18;;;;;;;11.93;7.80;;;;;;;-143.37;100.00;65745.06;5091561;28;20799;-72
2021/10/19 00:06:44;;;;;;;13.17;7.30;;;;;;;-143.37;100.00;65745.06;5091912;28;20311;-74
2021/10/19 00:09:11;;;;;;;12.50;7.67;;;;;;;-143.37;100.00;65745.06;5092378;28;20292;-72
2021/10/19 00:11:37;;;;;;;13.30;7.47;;;;;;;-143.37;100.00;65745.06;5092832;28;20320;-72
2021/10/19 00:14:04;;;;;;;10.37;7.40;;;;;;;-143.37;100.00;65745.06;5094283;28;20206;-72
2021/10/19 00:16:31;;;;;;;10.93;7.53;;;;;;;-143.37;100.00;65745.06;5093077;28;20307;-72
2021/10/19 00:18:58;;;;;;;12.23;7.80;;;;;;;-143.37;100.00;65745.06;5092489;28;20307;-72
2021/10/19 00:21:24;;;;;;;13.93;7.17;;;;;;;-143.37;100.00;65745.06;5092558;28;20372;-72
2021/10/19 00:23:52;;;;;;;10.77;7.30;;;;;;;-143.37;100.00;65745.06;5092605;28;20209;-72
2021/10/19 00:26:18;;;;;;;10.50;7.43;;;;;;;-143.37;100.00;65745.06;5091757;28;20354;-72
2021/10/19 00:28:45;;;;;;;16.10;7.27;;;;;;;-143.37;100.00;65745.06;5091530;28;20299;-72
2021/10/19 00:31:11;;;;;;;14.73;8.13;;;;;;;-143.37;100.00;65745.06;5091770;28;20311;-72
2021/10/19 00:33:38;;;;;;;10.03;7.50;;;;;;;-143.37;100.00;65745.06;5091472;28;20672;-72
2021/10/19 00:36:04;;;;;;;9.90;7.00;;;;;;;-143.37;100.00;65745.06;5074121;28;20299;-72
2021/10/19 00:38:31;;;;;;;12.87;7.20;;;;;;;-143.37;100.00;65745.06;5092420;28;20311;-72
2021/10/19 00:40:57;;;;;;;12.73;8.43;;;;;;;-143.37;100.00;65745.06;5091193;28;20238;-72
2021/10/19 00:43:25;;;;;;;11.43;7.60;;;;;;;-143.37;100.00;65745.06;5092383;28;20255;-72
2021/10/19 00:45:53;;;;;;;12.70;6.90;;;;;;;-143.37;100.00;65745.06;5088379;28;20280;-72
2021/10/19 00:48:23;;;;;;;12.97;7.13;;;;;;;-143.37;100.00;65745.06;5072533;28;20212;-72
2021/10/19 00:50:51;;;;;;;11.73;7.47;;;;;;;-143.37;100.00;65745.06;5070252;28;20236;-72
2021/10/19 00:53:18;;;;;;;13.63;9.00;;;;;;;-143.37;100.00;65745.06;5072789;28;20233;-72
2021/10/19 00:55:45;;;;;;;13.77;8.97;;;;;;;-143.37;100.00;65745.06;5071758;28;20251;-72
2021/10/19 00:58:12;;;;;;;10.70;7.43;;;;;;;-143.37;100.00;65745.06;5071991;28;20209;-72
2021/10/19 01:34:49;;;;;;;18.33;9.53;;;;;;;;;;5109217;27;20553;-73
2021/10/19 01:37:16;;;;;;;17.70;9.57;;;;;;;;;;5110213;28;20201;-72
2021/10/19 01:39:42;;;;;;;19.33;11.27;;;;;;;;;;5109851;28;20238;-72
2021/10/19 01:42:08;;;;;;;21.20;11.50;;;;;;;;;;5090018;28;20224;-72
2021/10/19 01:44:35;;;;;;;18.07;10.73;;;;;;;;;;5088721;28;20209;-72
2021/10/19 01:47:01;;;;;;;20.60;11.10;;;;;;;;;;5100140;28;20732;-72
2021/10/19 01:49:27;;;;;;;17.27;10.97;;;;;;;;;;5108389;28;20229;-72
2021/10/19 01:51:54;;;;;;;19.63;11.93;;;;;;;;;;5108775;28;20223;-72
2021/10/19 01:54:20;;;;;;;18.83;10.43;;;;;;;;;;5108096;28;20331;-72
2021/10/19 01:56:46;;;;;;;17.27;10.60;;;;;;;;;;5108397;28;20294;-72
2021/10/19 01:59:13;;;;;;;18.50;10.80;;;;;;;;;;5108963;28;20731;-72
2021/10/19 02:01:39;;;;;;;17.23;10.23;;;;;;;;;;5106989;28;20746;-73
2021/10/19 02:04:06;;;;;;;14.63;9.53;;;;;;;;;;5108122;28;20261;-72
2021/10/19 02:06:32;;;;;;;15.60;10.03;;;;;;;;;;5090246;28;20588;-72
2021/10/19 02:08:58;;;;;;;13.73;8.70;;;;;;;;;;5108716;28;20556;-72
2021/10/19 02:11:25;;;;;;;16.27;9.90;;;;;;;;;;5106395;28;20288;-73
2021/10/19 02:13:51;;;;;;;17.43;9.87;;;;;;;;;;5108002;28;20234;-73
2021/10/19 02:16:17;;;;;;;15.27;9.70;;;;;;;;;;5107856;28;20207;-73
2021/10/19 02:18:44;;;;;;;16.33;9.67;;;;;;;;;;5108555;28;20211;-73
2021/10/19 02:21:10;;;;;;;15.50;9.20;;;;;;;;;;5107443;28;20692;-73
2021/10/19 02:23:36;;;;;;;16.77;9.57;;;;;;;;;;5106862;28;20260;-73
2021/10/19 02:26:03;;;;;;;16.90;10.10;;;;;;;;;;5092036;28;20287;-73
2021/10/19 02:28:29;;;;;;;18.60;9.70;;;;;;;;;;5087774;28;20207;-73
2021/10/19 02:30:55;;;;;;;18.03;9.70;;;;;;;;;;5087346;28;20207;-73
2021/10/19 02:33:22;;;;;;;16.67;9.80;;;;;;;;;;5087970;28;20224;-73
2021/10/19 02:35:49;;;;;;;14.73;9.17;;;;;;;;;;5086368;28;20205;-73
2021/10/19 02:38:16;;;;;;;17.27;9.83;;;;;;;;;;5086712;28;20200;-73
2021/10/19 02:40:42;;;;;;;13.30;8.27;;;;;;;;;;5094920;28;20208;-73
2021/10/19 02:43:08;;;;;;;15.93;9.53;;;;;;;;;;5108112;28;20226;-73
2021/10/19 02:45:35;;;;;;;16.27;9.93;;;;;;;;;;5095787;28;20208;-73
2021/10/19 02:48:01;;;;;;;14.07;8.87;;;;;;;;;;5074381;28;20205;-73
2021/10/19 02:50:28;;;;;;;16.27;9.63;;;;;;;;;;5073500;28;20208;-73
2021/10/19 02:52:54;;;;;;;14.40;9.23;;;;;;;;;;5074342;28;20311;-72
2021/10/19 02:55:20;;;;;;;15.93;10.13;;;;;;;;;;5074723;28;20229;-72
2021/10/19 02:57:47;;;;;;;16.37;9.40;;;;;;;;;;5077450;28;20305;-72
2021/10/19 03:00:13;;;;;;;17.20;9.53;;;;;;;;;;5076432;28;20201;-72
2021/10/19 03:02:40;;;;;;;14.07;9.50;;;;;;;;;;5075974;28;20297;-72
2021/10/19 03:05:06;;;;;;;13.73;9.47;;;;;;;;;;5076637;28;20719;-72
2021/10/19 03:07:33;;;;;;;15.00;9.30;;;;;;;;;;5072151;28;20209;-73
2021/10/19 03:09:59;;;;;;;13.23;9.10;;;;;;;;;;5072644;28;20308;-73
2021/10/19 03:12:26;;;;;;;15.30;9.23;;;;;;;;;;5073763;28;20308;-72
2021/10/19 03:14:52;;;;;;;15.90;9.80;;;;;;;;;;5071782;28;20232;-72
2021/10/19 03:17:21;;;;;;;16.10;9.40;;;;;;;;;;5073207;28;20205;-72
2021/10/19 03:19:48;;;;;;;15.43;10.20;;;;;;;;;;5071880;28;20197;-72
2021/10/19 03:22:14;;;;;;;13.97;8.90;;;;;;;;;;5073304;28;20312;-72
2021/10/19 03:24:44;;;;;;;12.70;8.40;;;;;;;;;;5076900;28;20211;-73
2021/10/19 03:27:11;;;;;;;16.10;9.53;;;;;;;;;;5091377;28;20232;-73
2021/10/19 03:29:37;;;;;;;16.07;9.33;;;;;;;;;;5092970;28;20200;-72
2021/10/19 03:32:04;;;;;;;15.33;9.53;;;;;;;;;;5093457;28;20315;-72
2021/10/19 03:34:30;;;;;;;13.97;9.20;;;;;;;;;;5092867;28;20275;-72
2021/10/19 03:36:56;;;;;;;15.67;8.97;;;;;;;;;;5091740;28;20230;-72
2021/10/19 03:39:23;;;;;;;14.97;9.23;;;;;;;;;;5091155;28;20236;-72
2021/10/19 03:41:49;;;;;;;14.97;9.27;;;;;;;;;;5093136;28;20226;-72
2021/10/19 03:44:16;;;;;;;15.07;9.17;;;;;;;;;;5093295;28;20299;-72
2021/10/19 03:46:42;;;;;;;14.57;8.90;;;;;;;;;;5082182;28;20737;-72
2021/10/19 03:49:08;;;;;;;13.43;8.87;;;;;;;;;;5072244;28;20604;-72
2021/10/19 03:51:35;;;;;;;15.97;8.97;;;;;;;;;;5070530;28;20260;-72
2021/10/19 03:54:01;;;;;;;14.83;8.53;;;;;;;;;;5071816;28;20229;-72
2021/10/19 03:56:28;;;;;;;11.10;8.07;;;;;;;;;;5072176;28;20225;-72
2021/10/19 03:58:54;;;;;;;14.33;8.30;;;;;;;;;;5073410;28;20693;-72
2021/10/19 04:01:21;;;;;;;18.50;9.40;;;;;;;;;;5073235;28;20308;-72
2021/10/19 04:03:48;;;;;;;17.17;9.47;;;;;;;;;;5075261;28;20208;-72
2021/10/19 04:06:14;;;;;;;15.10;9.07;;;;;;;;;;5072948;28;20215;-73
2021/10/19 04:08:40;;;;;;;14.27;9.50;;;;;;;;;;5073974;28;20780;-73
2021/10/19 04:11:07;;;;;;;16.07;9.33;;;;;;;;;;5074101;28;20252;-73
2021/10/19 04:13:33;;;;;;;14.60;8.67;;;;;;;;;;5075062;28;20267;-73
2021/10/19 04:16:00;;;;;;;16.30;9.67;;;;;;;;;;5073304;28;20662;-74
2021/10/19 04:18:26;;;;;;;16.03;9.57;;;;;;;;;;5073487;28;20201;-72
2021/10/19 04:20:55;;;;;;;15.00;9.53;;;;;;;;;;5072704;28;20243;-72
2021/10/19 04:23:22;;;;;;;13.30;9.17;;;;;;;;;;5073738;28;20827;-72
2021/10/19 04:25:49;;;;;;;15.70;9.43;;;;;;;;;;5085466;28;20192;-72
2021/10/19 04:28:15;;;;;;;14.70;9.17;;;;;;;;;;5093249;28;20228;-72
2021/10/19 04:30:44;;;;;;;15.67;9.70;;;;;;;;;;5090361;28;20292;-72
2021/10/19 04:33:10;;;;;;;15.20;9.20;;;;;;;;;;5090422;28;20708;-73
2021/10/19 04:35:37;;;;;;;14.10;9.03;;;;;;;;;;5090991;28;20376;-72
2021/10/19 04:38:03;;;;;;;15.17;9.37;;;;;;;;;;5090722;28;20835;-73
2021/10/19 04:40:29;;;;;;;19.27;9.47;;;;;;;;;;5089790;28;20201;-72
2021/10/19 04:42:56;;;;;;;17.10;8.83;;;;;;;;;;5092057;28;20311;-72
2021/10/19 04:45:23;;;;;;;16.10;10.00;;;;;;;;;;5090892;28;20208;-71
2021/10/19 04:47:49;;;;;;;14.97;9.90;;;;;;;;;;5073093;28;20308;-71
2021/10/19 04:50:16;;;;;;;15.10;9.60;;;;;;;;;;5089219;28;20201;-71
2021/10/19 04:52:42;;;;;;;14.17;9.03;;;;;;;;;;5094774;28;20323;-72
2021/10/19 04:55:09;;;;;;;13.70;8.57;;;;;;;;;;5075819;28;20220;-71
2021/10/19 04:57:35;;;;;;;16.87;8.47;;;;;;;;;;5092723;28;20207;-72
2021/10/19 05:00:02;;;;;;;13.00;7.83;;;;;;;;;;5092106;28;20207;-70
2021/10/19 05:02:29;;;;;;;13.80;8.60;;;;;;;;;;5090180;28;20259;-71
2021/10/19 05:04:55;;;;;;;13.37;8.57;;;;;;;;;;5091728;28;20765;-70
2021/10/19 05:07:21;;;;;;;12.57;7.43;;;;;;;;;;5093778;28;20732;-70
2021/10/19 05:09:48;;;;;;;13.03;7.53;;;;;;;;;;5092792;28;20211;-72
2021/10/19 05:12:14;;;;;;;16.57;8.60;;;;;;;;;;5092193;28;20220;-71
2021/10/19 05:14:40;;;;;;;14.00;7.77;;;;;;;;;;5092462;28;20310;-71
2021/10/19 05:17:08;;;;;;;11.37;7.57;;;;;;;;;;5091701;28;20809;-71
2021/10/19 05:19:34;;;;;;;17.13;8.23;;;;;;;;;;5090773;28;20204;-71
2021/10/19 05:22:01;;;;;;;12.93;8.27;;;;;;;;;;5091115;28;20319;-72
2021/10/19 05:24:27;;;;;;;12.70;7.83;;;;;;;;;;5090113;28;20292;-74
2021/10/19 05:26:53;;;;;;;17.20;8.47;;;;;;;;;;5090046;28;20206;-73
2021/10/19 05:29:20;;;;;;;14.80;8.50;;;;;;;;;;5090567;28;20295;-74
2021/10/19 05:31:46;;;;;;;16.30;8.13;;;;;;;;;;5088942;28;20332;-73
2021/10/19 05:34:13;;;;;;;16.70;9.27;;;;;;;;;;5071328;28;20931;-73
2021/10/19 05:36:39;;;;;;;15.90;9.20;;;;;;;;;;5089814;28;20574;-74
2021/10/19 05:39:05;;;;;;;18.00;9.53;;;;;;;;;;5088368;28;20196;-72
2021/10/19 05:41:32;;;;;;;15.87;9.30;;;;;;;;;;5067549;28;20229;-72
2021/10/19 05:43:58;;;;;;;20.60;10.00;;;;;;;;;;5069652;28;20205;-72
2021/10/19 05:46:25;;;;;;;18.90;9.77;;;;;;;;;;5076486;28;20290;-73
2021/10/19 05:48:52;;;;;;;19.67;9.07;;;;;;;;;;5089547;28;20210;-72
2021/10/19 05:51:18;;;;;;;20.57;9.27;;;;;;;;;;5088587;28;20224;-73
2021/10/19 05:53:45;;;;;;;18.17;9.47;;;;;;;;;;5089451;28;20219;-73
2021/10/19 05:56:11;;;;;;;20.13;9.43;;;;;;;;;;5089040;28;20301;-72
2021/10/19 05:58:39;;;;;;;16.57;9.27;;;;;;;;;;5089930;28;20207;-71
2021/10/19 06:01:05;;;;;;;16.83;9.47;;;;;;;;;;5089900;28;20227;-70
2021/10/19 06:03:31;;;;;;;17.50;9.80;;;;;;;;;;5089878;28;20558;-73
2021/10/19 06:05:58;;;;;;;17.27;9.77;;;;;;;;;;5090097;28;20258;-71
2021/10/19 06:08:24;;;;;;;18.30;10.23;;;;;;;;;;5090221;28;20785;-70
2021/10/19 06:10:51;;;;;;;28.67;11.03;;;;;;;;;;5090642;28;20628;-70
2021/10/19 06:13:17;;;;;;;18.87;9.80;;;;;;;;;;5091191;28;20292;-72
2021/10/19 06:15:46;;;;;;;17.50;10.53;;;;;;;;;;5089836;28;20656;-72
2021/10/19 06:18:13;;;;;;;21.13;10.70;;;;;;;;;;5091427;28;20291;-72
2021/10/19 06:20:40;;;;;;;21.97;11.20;;;;;;;;;;5093801;28;20197;-72
2021/10/19 06:23:06;;;;;;;18.87;10.67;;;;;;;;;;5096638;28;20206;-72
2021/10/19 06:25:32;;;;;;;24.73;12.10;;;;;;;;;;5095627;28;20677;-71
2021/10/19 06:27:59;;;;;;;16.07;10.57;;;;;;;;;;5094735;28;20208;-70
2021/10/19 06:30:25;;;;;;;22.33;11.57;;;;;;;;;;5093058;28;20204;-71
2021/10/19 06:32:51;;;;;;;20.80;12.20;;;;;;;;;;5094616;28;20232;-71
2021/10/19 06:35:18;;;;;;;19.77;11.90;;;;;;;;;;5094968;28;20307;-71
2021/10/19 06:37:44;;;;;;;17.87;10.17;;;;;;;;;;5095039;28;20270;-70
2021/10/19 06:40:11;;;;;;;18.57;11.13;;;;;;;;;;5093973;28;20207;-70
2021/10/19 06:42:38;;;;;;;21.03;11.67;;;;;;;;;;5095160;28;20356;-71
2021/10/19 06:45:04;;;;;;;19.00;10.83;;;;;;;;;;5093756;28;20287;-71
2021/10/19 06:47:32;;;;;;;17.30;10.47;;;;;;;;;;5076399;28;20666;-72
2021/10/19 06:49:59;;;;;;;23.23;11.47;;;;;;;;;;5073682;28;20289;-72
2021/10/19 06:52:25;;;;;;;23.97;12.03;;;;;;;;;;5073989;28;20221;-71
2021/10/19 06:54:52;;;;;;;18.07;10.70;;;;;;;;;;5073989;28;20934;-71
2021/10/19 06:57:18;;;;;;;21.53;11.23;;;;;;;;;;5074522;28;20205;-71
2021/10/19 06:59:44;;;;;;;20.87;11.17;;;;;;;;;;5074236;28;20215;-71
2021/10/19 07:02:11;;;;;;;20.87;10.80;;;;;;;;;;5075231;28;20312;-71
2021/10/19 07:04:37;;;;;;;16.43;10.20;;;;;;;;;;5074607;28;20295;-71
2021/10/19 07:07:04;;;;;;;18.13;9.93;;;;;;;;;;5074298;28;20205;-71
2021/10/19 07:09:30;;;;;;;15.37;9.63;;;;;;;;;;5071987;28;20258;-71
2021/10/19 07:11:58;;;;;;;13.47;8.90;;;;;;;;;;5072346;28;20307;-71
2021/10/19 07:14:24;;;;;;;13.10;7.57;;;;;;;;;;5073876;28;20221;-70
2021/10/19 07:16:51;;;;;;;12.50;8.23;;;;;;;;;;5073816;28;20201;-71
2021/10/19 07:19:17;;;;;;;12.53;8.13;;;;;;;;;;5073592;28;20636;-70
2021/10/19 07:21:44;;;;;;;14.83;8.00;;;;;;;;;;5072906;28;20670;-70
2021/10/19 07:24:10;;;;;;;15.20;8.73;;;;;;;;;;5073383;28;20658;-70
2021/10/19 07:26:37;;;;;;;16.40;8.80;;;;;;;;;;5092889;28;20567;-71
2021/10/19 07:29:03;;;;;;;12.97;8.20;;;;;;;;;;5093817;28;20375;-71
2021/10/19 07:31:29;;;;;;;14.70;8.10;;;;;;;;;;5092803;28;20784;-70
2021/10/19 07:33:56;;;;;;;15.97;9.27;;;;;;;;;;5093744;28;20224;-70
2021/10/19 07:36:22;;;;;;;12.57;8.10;;;;;;;;;;5093794;28;20204;-70
2021/10/19 07:38:50;;;;;;;12.37;7.57;;;;;;;;;;5093163;28;20219;-70
2021/10/19 07:41:16;;;;;;;14.57;9.77;;;;;;;;;;5080139;28;20233;-70
2021/10/19 07:43:42;;;;;;;13.53;8.83;;;;;;;;;;5073478;28;20209;-70
2021/10/19 07:46:09;;;;;;;13.93;8.50;;;;;;;;;;5078392;28;20192;-71
2021/10/19 07:48:35;;;;;;;15.17;8.17;;;;;;;;;;5093663;28;20292;-71
2021/10/19 07:51:02;;;;;;;14.37;8.67;;;;;;;;;;5092986;28;20670;-71
2021/10/19 07:53:28;;;;;;;10.27;7.17;;;;;;;;;;5093824;28;20295;-72
2021/10/19 07:55:54;;;;;;;11.07;7.60;;;;;;;;;;5092560;28;20220;-71
2021/10/19 07:58:21;;;;;;;13.57;7.77;;;;;;;;;;5093754;28;20228;-72
2021/10/19 08:00:47;;;;;;;11.13;7.57;;;;;;;;;;5093051;28;20240;-71
2021/10/19 08:03:13;;;;;;;12.60;7.37;;;;;;;;;;5093165;28;20283;-71
2021/10/19 08:05:42;;;;;;;11.17;7.60;;;;;;;;;;5092801;28;20251;-71
2021/10/19 08:08:10;;;;;;;12.23;7.53;;;;;;;;;;5092875;28;20208;-72
2021/10/19 08:10:40;;;;;;;13.50;8.03;;;;;;;;;;5091910;28;20208;-72
2021/10/19 08:13:08;;;;;;;12.40;8.00;;;;;;;;;;5093051;28;20204;-71
2021/10/19 08:15:35;;;;;;;12.50;7.90;;;;;;;;;;5092457;28;20228;-71
2021/10/19 08:18:03;;;;;;;10.67;7.57;;;;;;;;;;5091377;28;20211;-71
2021/10/19 08:20:30;;;;;;;11.50;7.17;;;;;;;;;;5091762;28;20236;-71
2021/10/19 08:22:57;;;;;;;8.33;6.17;;;;;;;;;;5092789;28;20307;-71
2021/10/19 08:25:23;;;;;;;10.47;7.07;;;;;;;;;;5092384;28;20694;-71
2021/10/19 08:27:50;;;;;;;10.63;6.40;;;;;;;;;;5092607;28;20257;-71
2021/10/19 08:30:18;;;;;;;8.93;6.80;;;;;;;;;;5092257;28;20204;-71
2021/10/19 08:32:45;;;;;;;9.27;6.17;;;;;;;;;;5092418;28;20916;-72
2021/10/19 08:35:12;;;;;;;8.63;6.67;;;;;;;;;;5091128;28;20224;-72
2021/10/19 08:37:38;;;;;;;11.37;6.40;;;;;;;;;;5092393;28;20247;-71
2021/10/19 08:40:05;;;;;;;8.67;5.87;;;;;;;;;;5090546;28;20236;-71
2021/10/19 08:42:31;;;;;;;10.27;6.70;;;;;;;;;;5092145;28;20263;-72
2021/10/19 08:45:00;;;;;;;11.23;7.63;;;;;;;;;;5091500;28;20331;-71
2021/10/19 08:47:26;;;;;;;8.63;6.47;;;;;;;;;;5075248;28;20269;-71
2021/10/19 08:49:53;;;;;;;10.83;5.80;;;;;;;;;;5071748;28;20753;-71
2021/10/19 08:52:19;;;;;;;10.37;6.30;;;;;;;;;;5072184;28;20850;-71
2021/10/19 08:54:45;;;;;;;10.43;6.57;;;;;;;;;;5071860;28;20605;-71
2021/10/19 08:57:16;;;;;;;9.63;6.63;;;;;;;;;;5072546;28;20205;-71
2021/10/19 08:59:43;;;;;;;10.00;6.37;;;;;;;;;;5071238;28;20334;-71
2021/10/19 09:02:10;;;;;;;10.20;7.40;;;;;;;;;;5071960;28;20260;-72
2021/10/19 09:04:37;;;;;;;9.80;6.90;;;;;;;;;;5072014;28;20292;-71
2021/10/19 09:07:03;;;;;;;12.00;6.57;;;;;;;;;;5072210;28;20328;-71
2021/10/19 09:09:30;;;;;;;12.40;6.67;;;;;;;;;;5071394;28;20225;-71
2021/10/19 09:11:57;;;;;;;10.53;7.27;;;;;;;;;;5071821;28;20221;-71
2021/10/19 09:14:31;;;;;;;11.87;6.60;;;;;;;;;;5071598;28;20581;-72
2021/10/19 09:17:00;;;;;;;10.07;7.37;;;;;;;;;;5071885;28;20231;-71
2021/10/19 09:19:28;;;;;;;12.70;7.77;;;;;;;;;;5071360;28;20538;-71
2021/10/19 09:22:05;;;;;;;10.47;6.90;;;;;;;;;;5071600;28;20233;-71
2021/10/19 09:24:39;;;;;;;9.63;6.23;;;;;;;;;;5073564;28;20235;-72
2021/10/19 09:27:09;;;;;;;12.67;7.37;;;;;;;;;;5090415;28;20240;-71
2021/10/19 09:29:40;;;;;;;13.67;8.00;;;;;;;;;;5091906;28;20292;-72
2021/10/19 09:32:07;;;;;;;11.77;7.00;;;;;;;;;;5093015;28;20780;-71
2021/10/19 09:34:34;;;;;;;13.63;8.10;;;;;;;;;;5092125;28;20291;-71
2021/10/19 09:37:01;;;;;;;14.00;7.10;;;;;;;;;;5091923;28;20228;-71
2021/10/19 09:39:36;;;;;;;10.57;7.40;;;;;;;;;;5092970;28;20204;-71
2021/10/19 09:42:03;;;;;;;12.57;8.17;;;;;;;;;;5094633;28;20307;-72
2021/10/19 09:44:30;;;;;;;10.60;7.10;;;;;;;;;;5095558;28;20232;-72
2021/10/19 09:46:58;;;;;;;11.17;7.40;;;;;;;;;;5084762;28;20284;-72
2021/10/19 09:49:26;;;;;;;10.53;7.43;;;;;;;;;;5070871;28;20613;-71
2021/10/19 09:51:52;;;;;;;9.77;6.40;;;;;;;;;;5071106;28;20231;-71
2021/10/19 09:54:20;;;;;;;10.73;6.93;;;;;;;;;;5071306;28;20630;-72
2021/10/19 09:56:47;;;;;;;13.27;6.77;;;;;;;;;;5075070;28;20394;-71
2021/10/19 09:59:14;;;;;;;14.80;7.63;;;;;;;;;;5075497;28;20288;-72
2021/10/19 10:01:41;;;;;;;12.70;7.30;;;;;;;;;;5074415;28;20228;-72
2021/10/19 10:04:08;;;;;;;10.90;7.13;;;;;;;;;;5075149;28;20258;-71
2021/10/19 10:06:34;;;;;;;10.63;7.17;;;;;;;;;;5075105;28;20323;-71
2021/10/19 10:09:01;;;;;;;11.30;7.07;;;;;;;;;;5075828;28;20213;-72
2021/10/19 10:11:27;;;;;;;9.37;6.13;;;;;;;;;;5075117;28;20258;-71
2021/10/19 10:13:58;;;;;;;12.53;7.13;;;;;;;;;;5075294;28;20581;-71
2021/10/19 10:16:25;;;;;;;10.17;6.97;;;;;;;;;;5073436;28;20289;-71
2021/10/19 10:18:51;;;;;;;10.50;6.93;;;;;;;;;;5074268;28;20209;-72
2021/10/19 10:21:19;;;;;;;10.20;7.23;;;;;;;;;;5072981;28;20290;-71
2021/10/19 10:23:57;;;;;;;10.27;7.37;;;;;;;;;;5073069;28;20233;-70
2021/10/19 10:26:24;;;;;;;14.17;7.50;;;;;;;;;;5091819;28;20290;-71
2021/10/19 10:28:51;;;;;;;9.37;6.83;;;;;;;;;;5094290;28;20230;-70
2021/10/19 10:31:19;;;;;;;13.73;7.53;;;;;;;;;;5093459;28;20281;-70
2021/10/19 10:33:48;;;;;;;11.27;5.80;;;;;;;;;;5093723;28;20262;-70
2021/10/19 10:36:15;;;;;;;10.03;6.50;;;;;;;;;;5093849;28;20587;-71
2021/10/19 10:38:55;;;;;;;7.93;5.73;;;;;;;;;;5094406;28;20232;-70
2021/10/19 10:41:21;;;;;;;10.50;6.23;;;;;;;;;;5092785;28;20324;-71
2021/10/19 10:43:58;;;;;;;8.17;5.83;;;;;;;;;;5093294;28;20284;-71
2021/10/19 10:46:24;;;;;;;8.87;5.97;;;;;;;;;;5086768;28;20196;-70
2021/10/19 10:48:54;;;;;;;9.73;5.93;;;;;;;;;;5074187;28;20296;-70
2021/10/19 10:51:30;;;;;;;8.17;5.67;;;;;;;;;;5072575;28;20312;-71
2021/10/19 10:53:57;;;;;;;8.50;5.67;;;;;;;;;;5074254;28;20670;-71
2021/10/19 10:56:24;;;;;;;7.63;5.30;;;;;;;;;;5074106;28;20263;-71
2021/10/19 10:58:50;;;;;;;7.30;5.43;;;;;;;;;;5073506;28;20666;-70
2021/10/19 11:01:19;;;;;;;7.77;5.83;;;;;;;;;;5073077;28;20809;-70
2021/10/19 11:03:47;;;;;;;7.23;5.60;;;;;;;;;;5071925;28;20466;-70
2021/10/19 11:06:16;;;;;;;9.10;5.00;;;;;;;;;;5077781;28;20704;-71
2021/10/19 11:08:44;;;;;;;7.87;5.20;;;;;;;;;;5076091;28;20236;-72
2021/10/19 11:11:10;;;;;;;8.03;5.10;;;;;;;;;;5082433;28;20225;-72
2021/10/19 11:13:55;;;;;;;7.73;5.33;;;;;;;;;;5090353;28;20291;-71
2021/10/19 11:16:33;;;;;;;6.73;4.93;;;;;;;;;;5089122;28;20347;-71
2021/10/19 11:19:01;;;;;;;6.60;4.27;;;;;;;;;;5091208;28;20209;-71
2021/10/19 11:21:27;;;;;;;5.57;3.87;;;;;;;;;;5091083;28;20304;-71
2021/10/19 11:23:55;;;;;;;6.67;4.10;;;;;;;;;;5090571;28;20279;-71
2021/10/19 11:26:21;;;;;;;5.70;4.23;;;;;;;;;;5091640;28;20369;-71
2021/10/19 11:28:48;;;;;;;7.60;4.00;;;;;;;;;;5091590;28;20778;-71
2021/10/19 11:31:15;;;;;;;6.90;3.90;;;;;;;;;;5090758;28;20706;-70
2021/10/19 11:33:43;;;;;;;6.20;4.00;;;;;;;;;;5091098;28;20668;-71
2021/10/19 11:36:10;;;;;;;5.77;4.47;;;;;;;;;;5072358;28;20335;-71
2021/10/19 11:38:41;;;;;;;10.07;5.97;;;;;;;;;;5090673;28;20239;-70
2021/10/19 11:41:09;;;;;;;8.77;5.73;;;;;;;;;;5080397;28;20223;-74
2021/10/19 11:43:43;;;;;;;8.33;5.23;;;;;;;;;;5086902;28;20218;-70
2021/10/19 11:46:10;;;;;;;12.07;6.60;;;;;;;;;;5080451;28;20242;-71
2021/10/19 11:48:37;;;;;;;10.70;6.17;;;;;;;;;;5089016;28;20292;-71
2021/10/19 11:51:07;;;;;;;11.93;7.17;;;;;;;;;;5080242;28;20252;-70
2021/10/19 11:53:35;;;;;;;11.10;5.37;;;;;;;;;;5091418;28;20239;-71
2021/10/19 11:56:04;;;;;;;11.50;7.37;;;;;;;;;;5089404;28;20224;-70
2021/10/19 11:58:31;;;;;;;10.70;6.73;;;;;;;;;;5091078;28;20296;-73
2021/10/19 12:00:58;;;;;;;12.20;7.13;;;;;;;;;;5089364;28;20269;-70
2021/10/19 12:03:28;;;;;;;8.67;6.00;;;;;;;;;;5089474;28;20197;-73
2021/10/19 12:05:58;;;;;;;13.00;6.83;;;;;;;;;;5091142;28;20214;-72
2021/10/19 12:08:28;;;;;;;7.20;5.17;;;;;;;;;;5091171;28;20669;-73
2021/10/19 12:10:54;;;;;;;7.37;5.10;;;;;;;;;;5089757;28;20212;-73
2021/10/19 12:13:25;;;;;;;7.67;4.83;;;;;;;;;;5090066;28;20251;-73
2021/10/19 12:15:55;;;;;;;6.60;4.93;;;;;;;;;;5090708;28;20783;-72
2021/10/19 12:18:22;;;;;;;6.87;4.33;;;;;;;;;;5088840;28;20240;-71
2021/10/19 12:20:49;;;;;;;6.43;4.40;;;;;;;;;;5090393;28;20200;-71
2021/10/19 12:23:18;;;;;;;5.23;3.87;;;;;;;;;;5082704;28;20829;-72
2021/10/19 12:25:49;;;;;;;10.57;4.23;;;;;;;;;;5081905;28;20233;-72
2021/10/19 12:28:17;;;;;;;8.23;3.77;;;;;;;;;;5079016;28;20248;-73
2021/10/19 12:30:44;;;;;;;7.30;4.57;;;;;;;;;;5079647;28;20666;-73
2021/10/19 12:33:21;;;;;;;7.50;4.97;;;;;;;;;;5079026;28;20209;-72
2021/10/19 12:35:49;;;;;;;5.53;3.87;;;;;;;;;;5077508;28;20366;-71
2021/10/19 12:38:16;;;;;;;5.70;4.07;;;;;;;;;;5072728;28;20249;-72
2021/10/19 12:40:43;;;;;;;7.70;3.93;;;;;;;;;;5080966;28;20291;-73
2021/10/19 12:43:10;;;;;;;6.67;4.37;;;;;;;;;;5075789;28;20258;-73
2021/10/19 12:45:50;;;;;;;7.00;4.93;;;;;;;;;;5070227;28;20204;-69
2021/10/19 12:48:16;;;;;;;6.97;4.63;;;;;;;;;;5085094;28;20560;-72
2021/10/19 12:50:43;;;;;;;6.90;4.50;;;;;;;;;;5088966;28;20291;-73
2021/10/19 12:53:09;;;;;;;9.13;4.50;;;;;;;;;;5088958;28;20693;-71
2021/10/19 12:55:36;;;;;;;6.73;5.03;;;;;;;;;;5085144;28;20295;-71
2021/10/19 12:58:02;;;;;;;12.30;5.50;;;;;;;;;;5091854;28;20228;-72
2021/10/19 13:00:29;;;;;;;8.97;5.37;;;;;;;;;;5088818;28;20290;-73
2021/10/19 13:02:55;;;;;;;6.13;4.43;;;;;;;;;;5091104;28;20320;-72
2021/10/19 13:05:22;;;;;;;8.37;5.27;;;;;;;;;;5091564;28;20582;-71
2021/10/19 13:07:48;;;;;;;7.63;5.03;;;;;;;;;;5092019;28;20240;-72
2021/10/19 13:10:14;;;;;;;8.23;4.60;;;;;;;;;;5090032;28;20236;-71
2021/10/19 13:12:41;;;;;;;8.97;5.40;;;;;;;;;;5091882;28;20220;-71
2021/10/19 13:15:07;;;;;;;7.50;4.63;;;;;;;;;;5092424;28;20307;-71
2021/10/19 13:17:34;;;;;;;8.37;5.17;;;;;;;;;;5091457;28;20713;-71
2021/10/19 13:20:00;;;;;;;6.70;4.43;;;;;;;;;;5091226;28;20200;-71
2021/10/19 13:22:26;;;;;;;7.60;4.60;;;;;;;;;;5091358;28;20315;-71
2021/10/19 13:24:53;;;;;;;6.27;4.43;;;;;;;;;;5091684;28;20245;-70
2021/10/19 13:27:22;;;;;;;6.90;4.67;;;;;;;;;;5091463;28;20664;-71
2021/10/19 13:29:54;;;;;;;6.03;4.63;;;;;;;;;;5090853;28;20226;-71
2021/10/19 13:32:20;;;;;;;9.90;4.73;;;;;;;;;;5091464;28;20232;-71
2021/10/19 13:34:47;;;;;;;7.03;4.90;;;;;;;;;;5091474;28;20262;-70
2021/10/19 13:37:13;;;;;;;8.57;4.47;;;;;;;;;;5091395;28;20231;-71
2021/10/19 13:39:40;;;;;;;7.50;4.70;;;;;;;;;;5090944;28;20201;-70
2021/10/19 13:42:08;;;;;;;6.60;4.70;;;;;;;;;;5091370;28;20262;-72
2021/10/19 13:44:35;;;;;;;6.03;4.40;;;;;;;;;;5091500;28;20204;-72
2021/10/19 13:47:02;;;;;;;7.93;4.23;;;;;;;;;;5078914;28;20240;-71
2021/10/19 13:49:28;;;;;;;6.80;4.67;;;;;;;;;;5070385;28;20276;-70
2021/10/19 13:51:57;;;;;;;6.20;4.40;;;;;;;;;;5071027;28;20320;-70
2021/10/19 13:54:24;;;;;;;5.33;4.17;;;;;;;;;;5070933;28;20220;-71
2021/10/19 13:56:51;;;;;;;8.17;4.83;;;;;;;;;;5071185;28;20225;-70
2021/10/19 13:59:17;;;;;;;6.40;4.37;;;;;;;;;;5071029;28;20305;-70
2021/10/19 14:01:43;;;;;;;9.43;4.90;;;;;;;;;;5070221;28;20225;-71
2021/10/19 14:04:10;;;;;;;7.27;5.00;;;;;;;;;;5070735;28;20209;-71
2021/10/19 14:06:37;;;;;;;7.83;4.47;;;;;;;;;;5070892;28;20204;-72
2021/10/19 14:09:03;;;;;;;9.40;5.53;;;;;;;;;;5070631;28;20236;-71
2021/10/19 14:11:33;;;;;;;9.23;4.87;;;;;;;;;;5068887;28;20225;-71
2021/10/19 14:13:59;;;;;;;10.60;4.97;;;;;;;;;;5071124;28;20201;-71
2021/10/19 14:16:26;;;;;;;9.67;5.53;;;;;;;;;;5070806;28;20313;-71
2021/10/19 14:18:53;;;;;;;8.37;5.20;;;;;;;;;;5071079;28;20205;-73
2021/10/19 14:21:20;;;;;;;8.87;5.03;;;;;;;;;;5070456;28;20304;-72
2021/10/19 14:23:47;;;;;;;9.43;5.80;;;;;;;;;;5071029;28;20259;-73
2021/10/19 14:26:14;;;;;;;7.80;5.03;;;;;;;;;;5087033;28;20669;-73
2021/10/19 14:28:40;;;;;;;8.77;4.57;;;;;;;;;;5091074;28;20204;-73
2021/10/19 14:31:07;;;;;;;4.90;4.10;;;;;;;;;;5090194;28;20224;-74
2021/10/19 14:33:33;;;;;;;9.47;5.20;;;;;;;;;;5090749;28;20658;-74
2021/10/19 14:35:59;;;;;;;7.73;4.50;;;;;;;;;;5091027;28;20248;-73
2021/10/19 14:38:26;;;;;;;11.40;5.63;;;;;;;;;;5089602;28;20207;-73
2021/10/19 14:40:52;;;;;;;6.63;4.67;;;;;;;;;;5089660;28;20214;-73
2021/10/19 14:43:20;;;;;;;7.07;4.60;;;;;;;;;;5094563;28;20240;-73
2021/10/19 14:45:47;;;;;;;6.90;4.87;;;;;;;;;;5092112;28;20215;-71
2021/10/19 14:48:13;;;;;;;6.60;4.33;;;;;;;;;;5074239;28;20212;-71